Time;durP1;ratioP1;P1;durP2;ratioP2;P2;SDS_P1;SDS_P2;PMS_P1;PMS_P2;Temp;Humidity;BMP_temperature;BMP_pressure;BME280_temperature;BME280_humidity;BME280_pressure;Samples;Min_cycle;Max_cycle;Signal;HPM_P1;HPM_P2
2022/04/17 00:02:17;;;;;;;4.03;3.67;;;;;;;12.37;33.00;98651.44;5111157;28;20712;-73
2022/04/17 00:04:42;;;;;;;4.60;3.90;;;;;;;12.40;32.89;98651.19;5111584;28;20671;-72
2022/04/17 00:07:08;;;;;;;5.27;3.47;;;;;;;12.32;32.76;98660.66;5111369;28;20181;-72
2022/04/17 00:09:33;;;;;;;6.50;3.30;;;;;;;12.34;32.48;98656.13;5111209;28;20266;-73
2022/04/17 00:12:01;;;;;;;6.90;3.57;;;;;;;12.33;32.79;98657.94;5093704;28;20692;-73
2022/04/17 00:14:27;;;;;;;4.87;3.47;;;;;;;12.36;33.08;98654.19;5110966;28;20195;-73
2022/04/17 00:16:54;;;;;;;12.43;4.00;;;;;;;12.29;33.95;98656.50;5093675;28;20800;-73
2022/04/17 00:19:20;;;;;;;4.20;3.80;;;;;;;12.26;33.90;98654.13;5110855;28;20430;-72
2022/04/17 00:21:46;;;;;;;4.33;3.60;;;;;;;12.19;34.50;98659.06;5111636;28;20426;-72
2022/04/17 00:24:13;;;;;;;5.97;3.50;;;;;;;12.09;34.90;98659.00;5093190;28;20469;-72
2022/04/17 00:26:39;;;;;;;4.73;4.03;;;;;;;12.06;35.18;98651.38;5110839;28;20441;-72
2022/04/17 00:29:04;;;;;;;8.03;4.33;;;;;;;11.89;35.53;98654.50;5113823;28;20431;-72
2022/04/17 00:31:30;;;;;;;4.17;3.40;;;;;;;11.84;35.79;98660.13;5111114;28;20192;-72
2022/04/17 00:33:55;;;;;;;4.67;4.00;;;;;;;11.78;35.59;98642.25;5111266;28;20777;-74
2022/04/17 00:36:20;;;;;;;10.10;4.40;;;;;;;11.78;35.16;98642.25;5110971;28;20188;-72
2022/04/17 00:38:46;;;;;;;6.27;4.40;;;;;;;11.69;35.70;98633.34;5111160;28;20637;-72
2022/04/17 00:41:12;;;;;;;8.13;4.47;;;;;;;11.63;35.40;98639.91;5111084;28;20189;-73
2022/04/17 00:43:47;;;;;;;4.33;3.93;;;;;;;11.63;35.82;98631.19;5110555;28;20362;-71
2022/04/17 00:46:13;;;;;;;6.97;4.03;;;;;;;11.53;36.41;98634.56;5111519;28;20189;-72
2022/04/17 00:48:39;;;;;;;6.77;3.90;;;;;;;11.53;36.82;98629.31;5103549;28;20426;-72
2022/04/17 00:51:05;;;;;;;8.50;4.33;;;;;;;11.40;37.12;98628.63;5115202;28;20433;-71
2022/04/17 00:53:31;;;;;;;5.00;3.70;;;;;;;11.37;36.90;98626.25;5114727;28;20475;-71
2022/04/17 00:55:57;;;;;;;4.40;4.00;;;;;;;11.33;36.98;98616.97;5114744;28;20438;-72
2022/04/17 00:58:24;;;;;;;7.13;4.33;;;;;;;11.29;37.29;98618.16;5078793;28;20435;-71
2022/04/17 01:00:50;;;;;;;5.70;4.60;;;;;;;11.15;37.63;98614.84;5114408;28;20181;-71
2022/04/17 01:03:17;;;;;;;6.43;5.73;;;;;;;11.20;37.54;98617.09;5114787;28;21001;-71
2022/04/17 01:05:44;;;;;;;5.40;4.17;;;;;;;11.13;37.51;98611.50;5106817;28;20703;-72
2022/04/17 01:08:10;;;;;;;7.03;4.43;;;;;;;11.14;37.54;98607.91;5115023;28;20439;-70
2022/04/17 01:10:36;;;;;;;7.00;3.90;;;;;;;11.20;37.46;98606.59;5108746;28;20425;-73
2022/04/17 01:13:05;;;;;;;4.90;4.40;;;;;;;11.09;37.79;98607.44;5120366;28;20529;-73
2022/04/17 01:15:31;;;;;;;6.30;4.33;;;;;;;11.09;37.96;98614.47;5117900;28;20200;-73
2022/04/17 01:17:56;;;;;;;4.73;4.23;;;;;;;11.06;37.79;98611.13;5103167;28;20422;-74
2022/04/17 01:20:23;;;;;;;5.80;4.40;;;;;;;10.89;38.25;98609.84;5102087;28;20943;-74
2022/04/17 01:22:49;;;;;;;8.30;4.00;;;;;;;10.85;38.34;98607.59;5101528;28;20299;-72
2022/04/17 01:28:01;;;;;;;11.30;4.93;;;;;;;10.78;38.95;98603.75;5120405;27;20419;-74
2022/04/17 01:30:26;;;;;;;5.50;4.30;;;;;;;10.83;37.96;98604.25;5113940;28;20776;-72
2022/04/17 01:32:51;;;;;;;5.70;4.20;;;;;;;10.76;38.51;98603.88;5117752;27;20456;-73
2022/04/17 01:35:17;;;;;;;7.10;3.97;;;;;;;10.62;38.95;98597.09;5117119;27;20199;-73
2022/04/17 01:37:46;;;;;;;8.33;4.13;;;;;;;10.68;39.13;98595.78;5115991;27;20189;-73
2022/04/17 01:40:12;;;;;;;8.80;4.60;;;;;;;10.63;39.15;98595.28;5113927;28;20181;-73
2022/04/17 01:42:37;;;;;;;5.53;4.30;;;;;;;10.55;39.16;98596.75;5113864;28;20546;-71
2022/04/17 01:45:03;;;;;;;6.33;3.90;;;;;;;10.47;39.57;98593.03;5113672;27;20748;-70
2022/04/17 01:47:30;;;;;;;5.43;4.03;;;;;;;10.56;39.06;98587.06;5115357;27;20188;-70
2022/04/17 01:49:56;;;;;;;4.50;4.07;;;;;;;10.59;38.83;98590.28;5113773;28;20185;-74
2022/04/17 01:52:21;;;;;;;5.00;3.97;;;;;;;10.55;38.94;98578.38;5113931;27;20508;-70
2022/04/17 01:54:47;;;;;;;5.97;4.67;;;;;;;10.55;39.23;98580.16;5120850;27;20191;-72
2022/04/17 01:57:13;;;;;;;5.23;4.40;;;;;;;10.43;39.86;98577.53;5117910;27;20715;-72
2022/04/17 01:59:38;;;;;;;4.37;3.93;;;;;;;10.53;39.22;98577.66;5113290;28;20181;-75
2022/04/17 02:02:04;;;;;;;6.70;4.50;;;;;;;10.47;39.43;98572.88;5113896;28;20207;-73
2022/04/17 02:04:35;;;;;;;5.27;4.60;;;;;;;10.35;39.88;98574.63;5095806;28;20223;-73
2022/04/17 02:07:02;;;;;;;5.90;4.20;;;;;;;10.39;39.22;98576.13;5114281;28;20185;-74
2022/04/17 02:09:27;;;;;;;6.93;4.20;;;;;;;10.41;39.62;98574.19;5113695;28;20515;-74
2022/04/17 02:11:53;;;;;;;6.53;4.90;;;;;;;10.43;39.66;98574.91;5114649;28;20510;-73
2022/04/17 02:14:19;;;;;;;6.03;4.30;;;;;;;10.30;40.11;98569.75;5115403;28;20185;-73
2022/04/17 02:16:45;;;;;;;6.20;4.70;;;;;;;10.19;40.14;98568.88;5114663;28;20280;-73
2022/04/17 02:19:12;;;;;;;6.60;4.47;;;;;;;10.11;40.17;98569.47;5113333;28;20505;-72
2022/04/17 02:21:37;;;;;;;5.40;3.90;;;;;;;9.94;40.68;98561.13;5113229;28;20415;-72
2022/04/17 02:24:04;;;;;;;5.20;4.00;;;;;;;10.05;40.31;98556.84;5113575;28;20517;-72
2022/04/17 02:26:29;;;;;;;4.93;4.17;;;;;;;9.99;40.36;98558.97;5113135;28;20555;-72
2022/04/17 02:28:56;;;;;;;5.67;5.00;;;;;;;10.01;40.47;98555.41;5118237;27;20431;-72
2022/04/17 02:31:22;;;;;;;9.53;5.00;;;;;;;9.92;40.59;98562.16;5094686;28;20185;-72
2022/04/17 02:33:47;;;;;;;5.73;4.60;;;;;;;9.93;40.49;98554.19;5113167;28;20481;-72
2022/04/17 02:36:13;;;;;;;6.70;4.30;;;;;;;9.79;40.67;98557.84;5112894;28;20222;-73
2022/04/17 02:38:38;;;;;;;5.20;4.70;;;;;;;9.82;40.70;98551.56;5112812;28;20193;-70
2022/04/17 02:41:04;;;;;;;5.70;5.13;;;;;;;9.78;40.56;98545.69;5113091;28;20560;-72
2022/04/17 02:43:29;;;;;;;7.27;5.10;;;;;;;9.72;41.07;98546.16;5112663;28;20563;-72
2022/04/17 02:45:55;;;;;;;6.10;4.47;;;;;;;9.68;41.46;98540.31;5112959;28;20181;-70
2022/04/17 02:48:20;;;;;;;7.20;4.60;;;;;;;9.68;41.17;98536.84;5112412;28;20189;-74
2022/04/17 02:50:47;;;;;;;5.37;4.87;;;;;;;9.71;41.48;98538.41;5104367;28;20185;-72
2022/04/17 02:53:13;;;;;;;6.90;5.17;;;;;;;9.70;41.20;98534.16;5112457;28;20301;-72
2022/04/17 02:55:39;;;;;;;8.70;5.67;;;;;;;9.62;41.07;98530.28;5112175;28;20446;-71
2022/04/17 02:58:04;;;;;;;7.33;5.20;;;;;;;9.63;41.25;98531.97;5112188;27;20435;-71
2022/04/17 03:00:31;;;;;;;7.10;5.13;;;;;;;9.44;41.34;98526.44;5111742;28;20191;-72
2022/04/17 03:05:41;;;;;;;6.53;4.50;;;;;;;9.46;41.75;98514.03;5112631;28;20435;-72
2022/04/17 03:08:11;;;;;;;5.60;4.87;;;;;;;9.37;41.51;98524.25;5112791;28;20433;-73
2022/04/17 03:10:38;;;;;;;5.00;4.50;;;;;;;9.45;41.27;98517.66;5111967;28;20196;-71
2022/04/17 03:13:05;;;;;;;9.70;4.80;;;;;;;9.27;42.04;98512.78;5111638;28;20455;-72
2022/04/17 03:15:31;;;;;;;5.50;4.90;;;;;;;9.38;41.71;98512.84;5111908;28;20419;-71
2022/04/17 03:17:58;;;;;;;5.10;4.60;;;;;;;9.42;41.93;98513.44;5094204;28;20414;-71
2022/04/17 03:20:23;;;;;;;5.70;5.00;;;;;;;9.36;41.29;98519.16;5111999;28;20573;-72
2022/04/17 03:22:49;;;;;;;5.80;4.93;;;;;;;9.38;41.29;98525.09;5112293;28;20894;-71
2022/04/17 03:25:15;;;;;;;9.17;5.03;;;;;;;9.35;41.60;98515.69;5112342;28;20181;-72
2022/04/17 03:27:43;;;;;;;6.07;4.90;;;;;;;9.31;41.91;98516.03;5098786;28;20192;-70
2022/04/17 03:30:09;;;;;;;5.83;5.07;;;;;;;9.35;41.85;98510.44;5113940;27;20422;-71
2022/04/17 03:32:35;;;;;;;6.10;4.73;;;;;;;9.37;41.76;98516.41;5111591;28;20520;-71
2022/04/17 03:35:01;;;;;;;6.10;5.00;;;;;;;9.38;41.78;98520.69;5114021;27;20419;-73
2022/04/17 03:37:26;;;;;;;6.60;5.27;;;;;;;9.24;42.08;98520.84;5111722;28;20283;-72
2022/04/17 03:39:53;;;;;;;7.70;5.47;;;;;;;9.06;42.13;98517.81;5113126;27;20185;-72
2022/04/17 03:42:21;;;;;;;5.63;5.00;;;;;;;8.98;42.27;98520.97;5111878;28;20247;-72
2022/04/17 03:44:47;;;;;;;6.33;5.63;;;;;;;8.96;42.55;98522.03;5111623;27;20480;-73
2022/04/17 03:47:12;;;;;;;6.80;5.30;;;;;;;9.02;42.47;98521.56;5115178;27;20431;-73
2022/04/17 03:49:38;;;;;;;6.40;5.60;;;;;;;9.01;42.48;98522.53;5097130;27;20184;-72
2022/04/17 03:52:04;;;;;;;10.50;5.80;;;;;;;8.91;43.04;98517.13;5117701;27;20238;-73
2022/04/17 03:54:30;;;;;;;9.80;5.53;;;;;;;8.93;42.44;98524.84;5112132;27;20262;-72
2022/04/17 03:56:56;;;;;;;6.67;5.60;;;;;;;8.94;42.98;98521.28;5111327;28;20435;-72
2022/04/17 03:59:21;;;;;;;8.43;5.93;;;;;;;8.86;42.12;98517.47;5110210;28;20192;-71
2022/04/17 04:01:47;;;;;;;11.20;6.00;;;;;;;8.83;43.09;98517.66;5119935;27;20203;-73
2022/04/17 04:04:14;;;;;;;7.23;5.77;;;;;;;8.82;43.22;98515.19;5114618;27;20180;-72
2022/04/17 04:06:41;;;;;;;7.20;6.50;;;;;;;8.93;42.82;98511.78;5111164;28;20185;-72
2022/04/17 04:09:06;;;;;;;7.83;6.03;;;;;;;8.81;42.90;98523.97;5110536;28;20499;-73
2022/04/17 04:11:32;;;;;;;6.90;6.00;;;;;;;8.90;42.98;98521.50;5110503;28;20438;-72
2022/04/17 04:13:57;;;;;;;6.30;5.70;;;;;;;8.87;42.93;98520.91;5113736;28;20220;-72
2022/04/17 04:16:23;;;;;;;7.43;5.57;;;;;;;8.84;42.55;98514.13;5112965;27;20263;-74
2022/04/17 04:18:49;;;;;;;7.50;6.07;;;;;;;8.80;43.00;98514.44;5110722;28;20185;-71
2022/04/17 04:21:14;;;;;;;7.40;5.80;;;;;;;8.73;43.13;98504.41;5117256;28;20185;-72
2022/04/17 04:23:41;;;;;;;10.37;7.60;;;;;;;8.62;43.07;98506.94;5117306;28;20443;-71
2022/04/17 04:26:07;;;;;;;9.60;7.40;;;;;;;8.73;43.02;98508.81;5111336;28;20177;-71
2022/04/17 04:28:33;;;;;;;9.17;6.93;;;;;;;8.61;42.95;98502.66;5110564;28;20771;-72
2022/04/17 04:31:12;;;;;;;8.10;6.47;;;;;;;8.69;43.48;98507.34;5110753;28;20488;-71
2022/04/17 04:33:39;;;;;;;8.90;6.57;;;;;;;8.69;43.57;98508.19;5110442;28;20232;-73
2022/04/17 04:36:06;;;;;;;7.07;6.37;;;;;;;8.63;43.39;98506.00;5118565;28;20916;-72
2022/04/17 04:38:33;;;;;;;10.73;6.07;;;;;;;8.47;43.81;98506.22;5111564;28;20530;-72
2022/04/17 04:40:59;;;;;;;8.03;5.90;;;;;;;8.51;43.68;98512.91;5092165;28;20474;-74
2022/04/17 04:43:26;;;;;;;11.37;6.53;;;;;;;8.43;43.81;98510.84;5092092;28;20531;-73
2022/04/17 04:46:06;;;;;;;7.30;5.93;;;;;;;8.45;44.24;98513.31;5112586;28;20854;-74
2022/04/17 04:51:27;;;;;;;10.60;6.97;;;;;;;8.44;44.76;98512.47;5108101;28;20498;-73
2022/04/17 04:53:54;;;;;;;6.37;5.77;;;;;;;8.54;44.05;98512.72;5111035;28;20463;-72
2022/04/17 04:56:20;;;;;;;6.60;6.00;;;;;;;8.59;43.99;98521.06;5110475;28;20431;-74
2022/04/17 04:58:46;;;;;;;7.53;6.33;;;;;;;8.68;43.77;98527.44;5110652;28;20430;-74
2022/04/17 05:01:12;;;;;;;7.60;6.47;;;;;;;8.59;44.33;98528.91;5110653;28;20427;-73
2022/04/17 05:03:38;;;;;;;7.90;6.00;;;;;;;8.60;44.43;98533.19;5110444;28;20446;-74
2022/04/17 05:06:04;;;;;;;10.13;6.23;;;;;;;8.51;44.35;98527.78;5110395;28;20487;-70
2022/04/17 05:08:29;;;;;;;7.47;6.53;;;;;;;8.45;44.36;98529.81;5110743;28;20427;-72
2022/04/17 05:10:55;;;;;;;7.30;6.50;;;;;;;8.55;44.15;98524.00;5111505;28;20649;-73
2022/04/17 05:13:21;;;;;;;6.23;5.63;;;;;;;8.64;44.54;98523.38;5100247;28;20216;-74
2022/04/17 05:15:47;;;;;;;8.47;7.00;;;;;;;8.63;43.96;98524.31;5120604;28;20197;-73
2022/04/17 05:18:12;;;;;;;7.47;5.93;;;;;;;8.63;43.40;98510.41;5104533;28;20213;-73
2022/04/17 05:20:38;;;;;;;6.33;5.73;;;;;;;8.69;44.04;98508.19;5120774;28;20431;-74
2022/04/17 05:23:26;;;;;;;6.80;5.80;;;;;;;8.78;43.91;98509.31;5104614;28;20197;-73
2022/04/17 05:25:56;;;;;;;11.27;6.53;;;;;;;8.89;43.76;98516.41;5120473;28;20189;-74
2022/04/17 05:28:22;;;;;;;6.80;6.10;;;;;;;8.98;44.01;98510.50;5121789;28;20431;-73
2022/04/17 05:30:47;;;;;;;10.17;8.00;;;;;;;8.96;44.10;98509.78;5122229;28;20444;-72
2022/04/17 05:33:13;;;;;;;17.00;12.30;;;;;;;8.88;44.13;98515.53;5111040;28;20362;-73
2022/04/17 05:35:39;;;;;;;8.13;7.30;;;;;;;8.97;44.09;98511.44;5121267;27;20177;-72
2022/04/17 05:38:05;;;;;;;10.20;7.60;;;;;;;9.07;44.12;98511.63;5115033;28;20926;-72
2022/04/17 05:40:51;;;;;;;8.40;7.60;;;;;;;9.20;44.05;98520.25;5095635;28;20185;-71
2022/04/17 05:43:17;;;;;;;8.80;6.80;;;;;;;9.22;44.04;98522.75;5113289;28;20503;-73
2022/04/17 05:45:43;;;;;;;11.20;7.20;;;;;;;9.27;43.93;98525.03;5095594;28;20423;-73
2022/04/17 05:48:09;;;;;;;11.73;6.50;;;;;;;9.34;43.43;98511.38;5113683;28;20445;-72
2022/04/17 05:50:36;;;;;;;8.33;5.60;;;;;;;9.48;43.63;98518.25;5118419;27;20426;-72
2022/04/17 05:53:02;;;;;;;6.00;5.33;;;;;;;9.62;42.36;98511.97;5113879;28;20207;-73
2022/04/17 05:55:28;;;;;;;8.37;6.00;;;;;;;9.77;42.04;98517.03;5112954;28;20411;-73
2022/04/17 05:57:54;;;;;;;7.90;6.00;;;;;;;9.98;41.81;98512.78;5095716;28;20177;-71
2022/04/17 06:00:19;;;;;;;7.60;5.43;;;;;;;10.19;41.26;98519.97;5112717;28;20513;-74
2022/04/17 06:02:46;;;;;;;7.63;5.23;;;;;;;10.39;40.87;98526.31;5113850;27;20637;-71
2022/04/17 06:05:13;;;;;;;6.17;4.63;;;;;;;10.59;39.77;98527.38;5113790;28;20181;-73
2022/04/17 06:07:39;;;;;;;7.17;5.00;;;;;;;10.84;40.06;98524.59;5095146;28;20847;-74
2022/04/17 06:10:06;;;;;;;5.20;4.70;;;;;;;11.13;39.25;98532.78;5113198;28;20899;-72
2022/04/17 06:12:32;;;;;;;5.83;4.57;;;;;;;11.41;38.43;98533.16;5112843;28;20439;-72
2022/04/17 06:14:57;;;;;;;4.70;3.87;;;;;;;11.62;38.38;98522.69;5113084;28;20426;-73
2022/04/17 06:17:23;;;;;;;6.50;5.00;;;;;;;11.76;38.09;98518.91;5112844;28;20931;-73
2022/04/17 06:19:49;;;;;;;6.60;4.60;;;;;;;11.94;38.24;98515.72;5094249;28;20284;-74
2022/04/17 06:22:14;;;;;;;5.30;4.80;;;;;;;12.15;36.88;98510.50;5112395;28;20207;-73
2022/04/17 06:24:39;;;;;;;6.50;4.40;;;;;;;12.22;36.46;98513.44;5112914;28;20177;-73
2022/04/17 06:27:05;;;;;;;6.07;4.50;;;;;;;12.44;36.36;98512.41;5112947;28;20185;-71
2022/04/17 06:29:31;;;;;;;7.03;4.90;;;;;;;12.64;35.87;98510.66;5112759;28;20579;-72
2022/04/17 06:31:57;;;;;;;6.67;4.37;;;;;;;12.81;35.34;98516.28;5113264;28;20688;-72
2022/04/17 06:34:22;;;;;;;4.30;3.90;;;;;;;12.92;34.39;98500.38;5112684;28;20463;-73
2022/04/17 06:36:48;;;;;;;4.57;3.57;;;;;;;12.98;33.05;98505.06;5112978;28;20199;-73
2022/04/17 06:39:13;;;;;;;5.03;4.10;;;;;;;13.15;32.46;98505.38;5112259;28;20184;-72
2022/04/17 06:41:39;;;;;;;3.80;3.40;;;;;;;13.19;31.24;98501.50;5112425;28;20264;-72
2022/04/17 06:44:05;;;;;;;3.73;3.43;;;;;;;13.36;31.44;98506.06;5094392;28;20177;-72
2022/04/17 06:46:30;;;;;;;5.10;3.23;;;;;;;13.50;30.28;98498.75;5111519;28;20223;-73
2022/04/17 06:48:56;;;;;;;6.20;3.57;;;;;;;13.55;30.42;98499.19;5112386;28;20181;-71
2022/04/17 06:51:24;;;;;;;4.90;3.07;;;;;;;13.66;30.17;98506.13;5104435;28;20186;-71
2022/04/17 06:53:50;;;;;;;4.73;3.00;;;;;;;13.58;30.25;98495.44;5111888;28;20254;-72
2022/04/17 06:56:18;;;;;;;3.43;2.80;;;;;;;13.53;30.04;98493.22;5111202;28;20438;-72
2022/04/17 06:58:47;;;;;;;3.83;3.43;;;;;;;13.37;30.47;98499.03;5111874;28;20457;-73
2022/04/17 07:01:17;;;;;;;4.60;3.03;;;;;;;13.41;30.18;98502.25;5111654;28;20518;-72
2022/04/17 07:03:44;;;;;;;5.70;3.27;;;;;;;13.64;30.17;98497.53;5108774;28;21242;-71
2022/04/17 07:06:10;;;;;;;5.00;3.30;;;;;;;13.65;30.15;98492.09;5112270;28;20477;-73
2022/04/17 07:08:35;;;;;;;5.30;3.67;;;;;;;13.92;30.21;98493.16;5103795;28;20538;-74
2022/04/17 07:11:01;;;;;;;8.10;3.57;;;;;;;13.95;29.55;98500.81;5112836;28;20238;-70
2022/04/17 07:13:26;;;;;;;6.10;3.40;;;;;;;13.98;29.62;98492.63;5110198;28;20204;-72
2022/04/17 07:15:52;;;;;;;3.50;3.20;;;;;;;14.16;29.22;98488.41;5112614;28;20272;-71
2022/04/17 07:18:18;;;;;;;3.30;3.00;;;;;;;14.11;28.95;98488.84;5111682;28;20276;-71
2022/04/17 07:20:43;;;;;;;3.20;2.90;;;;;;;14.22;29.14;98486.03;5115318;27;20244;-72
2022/04/17 07:23:09;;;;;;;5.13;3.50;;;;;;;14.23;29.22;98489.47;5117112;27;20201;-72
2022/04/17 07:25:36;;;;;;;2.87;2.63;;;;;;;14.32;28.65;98487.78;5112617;28;20180;-71
2022/04/17 07:28:02;;;;;;;3.27;2.83;;;;;;;14.64;28.94;98481.25;5094400;28;20217;-72
2022/04/17 07:30:31;;;;;;;3.90;3.03;;;;;;;14.63;28.69;98485.69;5076611;28;20430;-73
2022/04/17 07:32:58;;;;;;;3.40;3.10;;;;;;;14.70;28.44;98475.41;5094533;28;20494;-72
2022/04/17 07:35:24;;;;;;;4.50;2.63;;;;;;;14.92;28.14;98473.34;5112094;28;20456;-72
2022/04/17 07:38:01;;;;;;;3.27;2.97;;;;;;;14.79;28.06;98458.69;5107480;28;20444;-72
2022/04/17 07:40:31;;;;;;;3.20;2.90;;;;;;;14.93;28.16;98464.44;5113002;27;20429;-71
2022/04/17 07:42:59;;;;;;;4.83;2.73;;;;;;;14.73;27.45;98457.47;5111561;28;20438;-71
2022/04/17 07:45:26;;;;;;;3.73;3.07;;;;;;;14.84;27.10;98451.16;5111512;28;20422;-71
2022/04/17 07:47:51;;;;;;;3.63;2.67;;;;;;;15.10;27.73;98453.06;5111503;28;20435;-71
2022/04/17 07:50:19;;;;;;;3.20;2.90;;;;;;;15.18;27.20;98454.97;5111167;28;20435;-73
2022/04/17 07:52:45;;;;;;;3.83;3.10;;;;;;;15.34;26.32;98454.25;5111468;28;20685;-72
2022/04/17 07:55:12;;;;;;;3.30;2.60;;;;;;;15.50;26.85;98450.91;5111886;28;20532;-72
2022/04/17 08:00:23;;;;;;;2.60;2.40;;;;;;;15.87;26.02;98451.72;5095457;28;20431;-72
2022/04/17 08:02:53;;;;;;;2.73;2.50;;;;;;;15.34;26.00;98447.16;5093271;28;20533;-73
2022/04/17 08:05:23;;;;;;;4.30;2.60;;;;;;;15.72;26.07;98449.59;5111219;28;20522;-74
2022/04/17 08:07:50;;;;;;;2.83;2.60;;;;;;;15.73;26.07;98448.63;5111603;28;20419;-72
2022/04/17 08:10:15;;;;;;;2.90;2.60;;;;;;;15.74;25.75;98447.63;5092686;28;20951;-73
2022/04/17 08:12:41;;;;;;;4.67;2.40;;;;;;;15.93;25.86;98446.63;5111315;28;20504;-72
2022/04/17 08:15:07;;;;;;;3.33;2.30;;;;;;;15.96;25.72;98450.78;5105949;28;20200;-72
2022/04/17 08:17:32;;;;;;;3.80;2.63;;;;;;;15.69;26.79;98451.72;5110970;28;20185;-73
2022/04/17 08:19:58;;;;;;;6.10;3.10;;;;;;;16.05;25.77;98449.81;5111517;28;20891;-73
2022/04/17 08:22:23;;;;;;;3.43;2.90;;;;;;;15.90;25.78;98443.44;5111073;28;20200;-72
2022/04/17 08:24:49;;;;;;;3.00;2.60;;;;;;;15.90;25.36;98446.09;5111313;28;20192;-72
2022/04/17 08:27:14;;;;;;;3.80;2.90;;;;;;;16.47;25.05;98437.59;5111336;28;20196;-72
2022/04/17 08:29:40;;;;;;;8.10;3.03;;;;;;;16.31;25.03;98433.09;5111249;28;20630;-72
2022/04/17 08:32:05;;;;;;;2.90;2.70;;;;;;;16.69;24.96;98436.19;5110800;28;20212;-72
2022/04/17 08:34:31;;;;;;;3.30;2.63;;;;;;;17.10;24.61;98434.63;5109612;28;20212;-72
2022/04/17 08:36:56;;;;;;;3.50;2.90;;;;;;;16.97;25.05;98435.09;5110808;28;20442;-72
2022/04/17 08:39:22;;;;;;;6.83;3.23;;;;;;;17.28;24.19;98427.34;5110557;28;20185;-73
2022/04/17 08:41:48;;;;;;;8.63;2.43;;;;;;;17.24;24.01;98436.63;5111082;28;20185;-73
2022/04/17 08:44:14;;;;;;;4.60;2.50;;;;;;;17.27;23.39;98427.53;5111119;28;20177;-73
2022/04/17 08:46:41;;;;;;;2.67;2.47;;;;;;;17.38;23.31;98419.25;5111384;28;20446;-73
2022/04/17 08:49:09;;;;;;;3.43;2.70;;;;;;;17.15;22.71;98419.91;5092957;28;20181;-71
2022/04/17 08:51:36;;;;;;;2.33;2.10;;;;;;;17.72;23.46;98426.16;5111239;28;20430;-73
2022/04/17 08:54:02;;;;;;;2.20;2.07;;;;;;;17.66;22.48;98417.06;5074721;28;20466;-72
2022/04/17 08:56:28;;;;;;;3.20;2.50;;;;;;;17.41;22.55;98407.47;5110644;28;20788;-73
2022/04/17 08:58:54;;;;;;;3.10;2.50;;;;;;;17.22;22.89;98414.78;5111008;28;20426;-72
2022/04/17 09:01:21;;;;;;;3.93;2.50;;;;;;;17.38;22.43;98398.03;5111099;28;20282;-72
2022/04/17 09:03:47;;;;;;;3.73;2.67;;;;;;;17.59;22.08;98394.88;5110842;28;20577;-73
2022/04/17 09:06:17;;;;;;;2.40;2.10;;;;;;;17.48;22.23;98389.94;5111045;28;20451;-72
2022/04/17 09:09:03;;;;;;;2.57;2.37;;;;;;;17.71;22.60;98387.38;5110792;28;20431;-72
2022/04/17 09:11:30;;;;;;;3.50;2.70;;;;;;;18.01;22.29;98370.94;5114542;28;20453;-73
2022/04/17 09:14:01;;;;;;;2.27;1.80;;;;;;;18.08;21.46;98371.91;5095973;28;20792;-73
2022/04/17 09:16:34;;;;;;;3.03;2.17;;;;;;;18.17;21.75;98370.03;5114612;28;20422;-74
2022/04/17 09:19:11;;;;;;;1.97;1.77;;;;;;;17.86;21.95;98379.56;5111717;28;20426;-73
2022/04/17 09:21:36;;;;;;;2.30;2.10;;;;;;;18.07;21.52;98380.84;5096278;28;20433;-72
2022/04/17 09:24:38;;;;;;;3.33;2.17;;;;;;;18.07;21.58;98363.13;5117239;27;20443;-72
2022/04/17 09:27:05;;;;;;;2.67;2.00;;;;;;;18.63;21.87;98343.56;5100192;28;20594;-72
2022/04/17 09:29:38;;;;;;;4.43;2.00;;;;;;;19.03;21.86;98340.81;5095532;28;20418;-72
2022/04/17 09:32:08;;;;;;;2.00;1.90;;;;;;;19.54;20.88;98339.31;5113716;28;20820;-72
2022/04/17 09:34:55;;;;;;;2.53;2.30;;;;;;;19.26;21.09;98334.66;5113667;28;20990;-72
2022/04/17 09:37:24;;;;;;;3.30;2.50;;;;;;;19.26;20.77;98332.00;5114263;28;20477;-72
2022/04/17 09:39:54;;;;;;;3.07;2.10;;;;;;;19.36;20.93;98332.53;5114006;28;20803;-72
2022/04/17 09:42:24;;;;;;;3.93;2.30;;;;;;;19.76;20.74;98342.91;5113769;28;20453;-72
2022/04/17 09:44:51;;;;;;;5.47;2.50;;;;;;;19.79;20.79;98326.59;5114347;27;20419;-71
2022/04/17 09:47:21;;;;;;;2.90;2.30;;;;;;;19.54;19.77;98340.16;5107221;27;20792;-71
2022/04/17 09:50:06;;;;;;;3.67;2.10;;;;;;;19.87;19.79;98339.81;5114216;28;20427;-72
2022/04/17 09:52:45;;;;;;;3.30;2.13;;;;;;;20.01;19.41;98338.19;5113825;28;20446;-73
2022/04/17 09:55:12;;;;;;;3.70;1.97;;;;;;;19.89;19.44;98339.66;5115158;28;20445;-74
2022/04/17 09:57:39;;;;;;;2.67;2.40;;;;;;;19.59;19.94;98328.97;5114441;28;20860;-73
2022/04/17 10:00:18;;;;;;;2.97;2.40;;;;;;;19.85;20.78;98330.34;5116884;28;20788;-73
2022/04/17 10:02:45;;;;;;;2.53;2.23;;;;;;;19.91;20.00;98321.69;5109288;27;20442;-72
2022/04/17 10:05:15;;;;;;;2.07;1.87;;;;;;;19.56;20.43;98326.69;5113682;28;20423;-73
2022/04/17 10:07:43;;;;;;;3.43;2.33;;;;;;;19.67;20.48;98328.88;5105222;28;20426;-74
2022/04/17 10:10:09;;;;;;;3.30;2.30;;;;;;;19.63;20.42;98316.97;5113409;28;20930;-72
2022/04/17 10:12:35;;;;;;;6.90;2.23;;;;;;;20.01;20.37;98303.59;5113727;28;20520;-73
2022/04/17 10:15:06;;;;;;;2.57;2.10;;;;;;;19.89;20.84;98300.56;5113611;28;20435;-73
2022/04/17 10:17:33;;;;;;;4.40;2.20;;;;;;;20.03;20.43;98295.41;5095521;28;20713;-72
2022/04/17 10:20:02;;;;;;;2.57;2.37;;;;;;;20.19;20.31;98294.34;5112927;28;20529;-74
2022/04/17 10:22:32;;;;;;;2.27;2.03;;;;;;;19.99;20.47;98305.59;5113590;28;20462;-74
2022/04/17 10:24:59;;;;;;;7.50;2.40;;;;;;;20.14;20.90;98296.78;5107966;28;20799;-73
2022/04/17 10:27:27;;;;;;;4.43;2.40;;;;;;;19.88;20.89;98298.09;5112879;28;20454;-73
2022/04/17 10:30:15;;;;;;;2.73;2.30;;;;;;;19.80;20.50;98296.34;5095220;28;20866;-74
2022/04/17 10:33:14;;;;;;;2.33;2.07;;;;;;;20.02;20.93;98293.75;5087071;28;20459;-75
2022/04/17 10:36:02;;;;;;;3.30;2.00;;;;;;;20.56;21.40;98271.19;5094467;28;20517;-73
2022/04/17 10:38:43;;;;;;;3.17;2.30;;;;;;;20.59;19.97;98273.47;5094420;28;20516;-72
2022/04/17 10:41:10;;;;;;;2.37;2.17;;;;;;;20.41;20.01;98288.03;5099028;28;20437;-74
2022/04/17 10:43:47;;;;;;;2.50;2.00;;;;;;;20.72;19.57;98278.91;5112776;28;20442;-73
2022/04/17 10:46:14;;;;;;;6.50;2.30;;;;;;;20.78;19.60;98277.34;5112986;28;20542;-73
2022/04/17 10:48:43;;;;;;;2.30;2.10;;;;;;;21.14;18.96;98270.25;5111000;28;20446;-74
2022/04/17 10:51:18;;;;;;;2.00;1.80;;;;;;;21.20;19.30;98276.66;5109633;28;20434;-73
2022/04/17 10:54:09;;;;;;;2.23;2.00;;;;;;;21.51;18.90;98260.22;5114930;27;20466;-72
2022/04/17 10:56:40;;;;;;;2.50;1.53;;;;;;;21.69;18.66;98256.22;5109922;28;20797;-73
2022/04/17 10:59:15;;;;;;;1.73;1.57;;;;;;;21.96;19.13;98253.66;5110532;28;20433;-73
2022/04/17 11:01:41;;;;;;;3.10;2.23;;;;;;;22.24;19.17;98256.22;5092328;28;20906;-73
2022/04/17 11:04:18;;;;;;;2.20;1.87;;;;;;;22.39;18.87;98237.34;5111401;28;20439;-74
2022/04/17 11:06:44;;;;;;;2.00;1.60;;;;;;;21.47;18.40;98248.31;5104621;28;20653;-73
2022/04/17 11:09:12;;;;;;;3.43;1.90;;;;;;;21.47;19.42;98237.63;5094097;28;20431;-72
2022/04/17 11:11:45;;;;;;;3.63;1.57;;;;;;;21.88;19.23;98238.66;5111557;28;20238;-73
2022/04/17 11:14:23;;;;;;;2.70;1.97;;;;;;;22.17;18.88;98232.19;5094001;28;20497;-73
2022/04/17 11:17:00;;;;;;;4.50;1.73;;;;;;;22.39;18.45;98226.66;5112728;28;20423;-73
2022/04/17 11:19:28;;;;;;;2.17;1.60;;;;;;;22.39;18.61;98215.97;5111842;28;20422;-73
2022/04/17 11:21:56;;;;;;;3.03;1.83;;;;;;;22.47;18.72;98218.47;5112678;28;20427;-72
2022/04/17 11:24:22;;;;;;;2.20;1.80;;;;;;;22.64;18.10;98223.41;5074615;28;20429;-74
2022/04/17 11:26:52;;;;;;;2.10;1.83;;;;;;;22.53;18.05;98232.84;5114877;27;20496;-73
2022/04/17 11:29:32;;;;;;;2.53;1.50;;;;;;;22.77;18.02;98220.75;5112020;28;20430;-72
2022/04/17 11:31:58;;;;;;;1.90;1.60;;;;;;;22.68;17.61;98216.66;5070274;28;20461;-74
2022/04/17 11:34:23;;;;;;;9.50;1.77;;;;;;;22.72;17.47;98217.84;5109090;28;20465;-73
2022/04/17 11:36:49;;;;;;;4.07;2.43;;;;;;;22.73;18.13;98224.03;5112013;28;20197;-74
2022/04/17 11:39:26;;;;;;;2.03;1.50;;;;;;;22.19;18.00;98207.94;5111478;28;20180;-74
2022/04/17 11:41:51;;;;;;;1.97;1.57;;;;;;;22.58;18.10;98192.19;5105274;28;21006;-72
2022/04/17 11:44:17;;;;;;;2.10;1.90;;;;;;;22.88;18.08;98197.91;5111595;28;20517;-72
2022/04/17 11:46:43;;;;;;;2.20;1.77;;;;;;;22.90;19.53;98208.41;5097592;27;20661;-73
2022/04/17 11:49:08;;;;;;;6.23;2.00;;;;;;;23.00;20.85;98195.44;5097898;28;20188;-74
2022/04/17 11:51:44;;;;;;;2.80;2.23;;;;;;;23.36;19.92;98191.44;5093120;28;20208;-74